createdAt,value
2023-12-01T06:02:25.435Z,93340.00
2023-12-01T06:02:52.596Z,93343.00
2023-12-01T06:03:52.619Z,93343.00
2023-12-01T06:04:52.584Z,93338.00
2023-12-01T06:05:52.549Z,93338.00
2023-12-01T06:08:03.827Z,93330.00
2023-12-01T06:09:01.769Z,93330.00
2023-12-01T06:10:00.674Z,93332.00
2023-12-01T06:11:00.633Z,93331.00
2023-12-01T06:12:00.630Z,93334.00
2023-12-01T06:13:00.713Z,93335.00
2023-12-01T06:14:00.653Z,93337.00
2023-12-01T06:15:00.635Z,93334.00
2023-12-01T06:16:00.675Z,93335.00
2023-12-01T06:17:00.808Z,93333.00
2023-12-01T06:18:00.835Z,93330.00
2023-12-01T06:19:02.197Z,93330.00
2023-12-01T06:20:00.942Z,93331.00
2023-12-01T06:21:00.996Z,93330.00
2023-12-01T06:22:01.073Z,93327.00
2023-12-01T06:23:01.224Z,93323.00
2023-12-01T06:24:01.173Z,93323.00
2023-12-01T06:25:01.332Z,93324.00
2023-12-01T06:26:01.312Z,93323.00
2023-12-01T06:27:01.357Z,93321.00
2023-12-01T06:28:01.457Z,93322.00
2023-12-01T06:29:01.471Z,93327.00
2023-12-01T06:30:01.509Z,93324.00
2023-12-01T06:31:01.576Z,93326.00
2023-12-01T06:32:01.650Z,93327.00
2023-12-01T06:33:01.691Z,93327.00
2023-12-01T06:34:01.760Z,93329.00
2023-12-01T06:35:01.746Z,93326.00
2023-12-01T06:36:01.808Z,93325.00
2023-12-01T06:37:01.846Z,93329.00
2023-12-01T06:38:01.939Z,93333.00
2023-12-01T06:39:01.929Z,93333.00
2023-12-01T06:40:02.105Z,93331.00
2023-12-01T06:41:02.010Z,93330.00
2023-12-01T06:42:02.076Z,93329.00
2023-12-01T06:43:02.119Z,93339.00
2023-12-01T06:44:02.180Z,93341.00
2023-12-01T06:45:02.234Z,93347.00
2023-12-01T06:46:02.298Z,93353.00
2023-12-01T06:47:02.352Z,93356.00
2023-12-01T06:48:03.143Z,93355.00
2023-12-01T06:49:02.433Z,93355.00
2023-12-01T06:50:02.474Z,93354.00
2023-12-01T06:51:02.463Z,93354.00
2023-12-01T06:52:02.567Z,93353.00
2023-12-01T06:53:02.760Z,93350.00
2023-12-01T06:54:02.653Z,93349.00
2023-12-01T06:55:02.688Z,93340.00
2023-12-01T06:56:02.641Z,93339.00
2023-12-01T06:57:02.692Z,93337.00
2023-12-01T06:58:02.785Z,93342.00
2023-12-01T06:59:02.815Z,93338.00
2023-12-01T07:00:02.886Z,93340.00
2023-12-01T07:01:02.925Z,93344.00
2023-12-01T07:02:03.032Z,93350.00
2023-12-01T07:03:03.043Z,93352.00
2023-12-01T07:04:03.034Z,93348.00
2023-12-01T07:05:03.057Z,93348.00
2023-12-01T07:06:03.083Z,93350.00
2023-12-01T07:07:03.278Z,93354.00
2023-12-01T07:08:03.130Z,93356.00
2023-12-01T07:09:03.180Z,93355.00
2023-12-01T07:10:03.361Z,93356.00
2023-12-01T07:11:04.207Z,93357.00
2023-12-01T07:12:03.287Z,93358.00
2023-12-01T07:13:03.364Z,93361.00
2023-12-01T07:14:03.345Z,93361.00
2023-12-01T07:15:03.384Z,93364.00
2023-12-01T07:16:03.437Z,93362.00
2023-12-01T07:17:03.966Z,93364.00
2023-12-01T07:18:03.534Z,93368.00
2023-12-01T07:19:03.516Z,93371.00
2023-12-01T07:20:03.541Z,93373.00
2023-12-01T07:21:03.571Z,93377.00
2023-12-01T07:22:03.670Z,93377.00
2023-12-01T07:23:06.150Z,93375.00
2023-12-01T07:24:03.700Z,93373.00
2023-12-01T07:25:03.677Z,93371.00
2023-12-01T07:26:03.681Z,93368.00
2023-12-01T07:27:03.637Z,93366.00
2023-12-01T07:28:03.685Z,93366.00
2023-12-01T07:29:03.677Z,93365.00
2023-12-01T07:30:03.684Z,93366.00
2023-12-01T07:31:03.716Z,93367.00
2023-12-01T07:32:03.699Z,93368.00
2023-12-01T07:33:03.698Z,93365.00
2023-12-01T07:34:03.728Z,93363.00
2023-12-01T07:35:03.694Z,93360.00
2023-12-01T07:36:03.679Z,93358.00
2023-12-01T07:37:03.687Z,93358.00
2023-12-01T07:38:03.669Z,93358.00
2023-12-01T07:39:04.948Z,93359.00
2023-12-01T07:40:03.720Z,93360.00
2023-12-01T07:41:03.710Z,93365.00
2023-12-01T07:42:03.678Z,93371.00
2023-12-01T07:43:03.700Z,93379.00
2023-12-01T07:44:03.683Z,93382.00
2023-12-01T07:45:03.737Z,93385.00
2023-12-01T07:46:03.734Z,93387.00
2023-12-01T07:47:03.766Z,93383.00
2023-12-01T07:48:03.809Z,93378.00
2023-12-01T07:49:09.149Z,93377.00
2023-12-01T07:50:04.782Z,93376.00
2023-12-01T07:51:03.797Z,93378.00
2023-12-01T07:52:03.914Z,93384.00
2023-12-01T07:53:03.787Z,93383.00
2023-12-01T07:54:03.810Z,93387.00
2023-12-01T07:55:03.844Z,93381.00
2023-12-01T07:56:03.802Z,93379.00
2023-12-01T07:57:03.790Z,93379.00
2023-12-01T07:58:03.859Z,93379.00
2023-12-01T07:59:03.797Z,93379.00
2023-12-01T08:00:03.793Z,93380.00
2023-12-01T08:01:03.856Z,93382.00
2023-12-01T08:02:04.738Z,93384.00
2023-12-01T08:03:03.943Z,93382.00
2023-12-01T08:04:04.056Z,93381.00
2023-12-01T08:05:04.037Z,93381.00
2023-12-01T08:06:04.098Z,93383.00
2023-12-01T08:07:04.266Z,93386.00
2023-12-01T08:08:04.284Z,93388.00
2023-12-01T08:09:04.267Z,93391.00
2023-12-01T08:10:04.387Z,93390.00
2023-12-01T08:11:04.459Z,93394.00
2023-12-01T08:12:04.517Z,93388.00
2023-12-01T08:13:04.612Z,93389.00
2023-12-01T08:14:04.604Z,93390.00
2023-12-01T08:15:04.752Z,93393.00
2023-12-01T08:16:04.767Z,93396.00
2023-12-01T08:17:04.841Z,93397.00
2023-12-01T08:18:05.078Z,93398.00
2023-12-01T08:19:04.964Z,93398.00
2023-12-01T08:20:05.026Z,93397.00
2023-12-01T08:21:05.100Z,93394.00
2023-12-01T08:22:05.115Z,93387.00
2023-12-01T08:23:05.122Z,93383.00
2023-12-01T08:24:05.201Z,93381.00
2023-12-01T08:25:05.204Z,93378.00
2023-12-01T08:26:05.198Z,93385.00
2023-12-01T08:27:05.219Z,93385.00
2023-12-01T08:28:05.274Z,93391.00
2023-12-01T08:29:05.296Z,93393.00
2023-12-01T08:30:05.356Z,93397.00
2023-12-01T08:31:05.401Z,93397.00
2023-12-01T08:32:05.486Z,93395.00
2023-12-01T08:33:05.486Z,93391.00
2023-12-01T08:34:05.518Z,93392.00
2023-12-01T08:35:06.524Z,93393.00
2023-12-01T08:36:05.536Z,93400.00
2023-12-01T08:37:05.498Z,93405.00
2023-12-01T08:38:05.512Z,93406.00
2023-12-01T08:39:05.512Z,93410.00
2023-12-01T08:40:05.579Z,93415.00
2023-12-01T08:41:05.510Z,93411.00
2023-12-01T08:42:05.515Z,93409.00
2023-12-01T08:43:05.542Z,93408.00
2023-12-01T08:44:05.605Z,93408.00
2023-12-01T08:45:05.783Z,93409.00
2023-12-01T08:46:05.781Z,93407.00
2023-12-01T08:47:05.826Z,93406.00
2023-12-01T08:48:05.936Z,93410.00
2023-12-01T08:49:05.984Z,93412.00
2023-12-01T08:50:08.987Z,93417.00
2023-12-01T08:51:06.059Z,93414.00
2023-12-01T08:52:06.046Z,93414.00
2023-12-01T08:53:06.048Z,93413.00
2023-12-01T08:54:06.064Z,93413.00
2023-12-01T08:55:07.110Z,93418.00
2023-12-01T08:56:06.023Z,93418.00
2023-12-01T08:57:06.053Z,93420.00
2023-12-01T08:58:06.041Z,93420.00
2023-12-01T08:59:06.086Z,93420.00
2023-12-01T09:00:06.070Z,93419.00
2023-12-01T09:01:06.064Z,93421.00
2023-12-01T09:02:06.088Z,93419.00
2023-12-01T09:03:07.206Z,93416.00
2023-12-01T09:04:06.164Z,93415.00
2023-12-01T09:05:06.063Z,93416.00
2023-12-01T09:06:06.072Z,93421.00
2023-12-01T09:07:07.896Z,93423.00
2023-12-01T09:08:06.041Z,93426.00
2023-12-01T09:09:06.140Z,93427.00
2023-12-01T09:10:06.073Z,93427.00
2023-12-01T09:11:06.082Z,93428.00
2023-12-01T09:12:06.156Z,93428.00
2023-12-01T09:13:07.755Z,93426.00
2023-12-01T09:14:06.190Z,93426.00
2023-12-01T09:15:06.229Z,93424.00
2023-12-01T09:16:06.298Z,93424.00
2023-12-01T09:17:06.352Z,93430.00
2023-12-01T09:18:06.489Z,93432.00
2023-12-01T09:19:08.046Z,93436.00
2023-12-01T09:20:06.547Z,93439.00
2023-12-01T09:21:06.584Z,93442.00
2023-12-01T09:22:06.605Z,93443.00
2023-12-01T09:23:06.638Z,93445.00
2023-12-01T09:24:06.776Z,93440.00
2023-12-01T09:25:08.013Z,93439.00
2023-12-01T09:26:06.780Z,93439.00
2023-12-01T09:27:06.880Z,93436.00
2023-12-01T09:28:06.896Z,93437.00
2023-12-01T09:29:06.937Z,93435.00
2023-12-01T09:30:07.019Z,93435.00
2023-12-01T09:31:07.089Z,93435.00
2023-12-01T09:32:07.239Z,93435.00
2023-12-01T09:33:07.278Z,93432.00
2023-12-01T09:34:07.225Z,93431.00
2023-12-01T09:35:07.311Z,93435.00
2023-12-01T09:36:07.394Z,93437.00
2023-12-01T09:37:07.415Z,93438.00
2023-12-01T09:38:07.536Z,93436.00
2023-12-01T09:39:07.537Z,93429.00
2023-12-01T09:40:07.794Z,93430.00
2023-12-01T09:41:07.650Z,93429.00
2023-12-01T09:42:07.925Z,93430.00
2023-12-01T09:43:07.790Z,93427.00
2023-12-01T09:44:13.317Z,93426.00
2023-12-01T09:45:09.628Z,93425.00
2023-12-01T09:46:07.791Z,93425.00
2023-12-01T09:47:07.753Z,93426.00
2023-12-01T09:48:07.924Z,93431.00
2023-12-01T09:49:07.772Z,93428.00
